Lady Eman — 5IM513 — position and weather

sailwx.info

Track history (hours):
 
Tides and Currents Weather Stations Pressure Air Temp Water Temp Dewpoint Dewpoint Depression Visibility Wind Speed Wind Dir Waves Ship Positions

Lady Eman

Last reported at 2016-Sep-20 10:33 UTC. Time now 2016-Sep-26 00:15 UTC.
Position N 34°32' E 032°21'.

Length 92 m; draft 4 m.

Type: Ship (hazmat cat A). MMSI: 677041300.

Date/timePositionNaut miles runAvg speedWind from/ knotsBaromVisibWave heightAir tempDewpointWater temp
2016-Sep-20 10:33N 34°32' E 032°21'16 8.1
2016-Sep-20 08:33N 34°28' E 032°41'8 8.2
2016-Sep-20 07:33N 34°26' E 032°50'9 8.3
2016-Sep-20 06:28N 34°24' E 033°01'26 6.7
2016-Sep-20 02:33N 34°18' E 033°32'18 5.6
2016-Sep-19 23:17N 34°14' E 033°53'21 5.6
2016-Sep-19 19:33N 34°09' E 034°18'6 5.9
2016-Sep-19 18:33N 34°07' E 034°25'14 7.0
2016-Sep-19 16:33N 34°03' E 034°41'19 8.9
2016-Sep-19 14:27N 33°57' E 035°02'9 8.9
2016-Sep-19 13:25N 33°55' E 035°13'8 8.4
2016-Sep-19 12:29N 33°55' E 035°22'  
2016-Sep-10 15:23N 34°54' E 035°50'0 0.0
2016-Sep-10 14:29N 34°54' E 035°50'  
Track history (hours):
 
Tides and Currents Weather Stations Pressure Air Temp Water Temp Dewpoint Dewpoint Depression Visibility Wind Speed Wind Dir Waves Ship Positions

Lady Eman

Last reported at 2016-Sep-20 10:33 UTC. Time now 2016-Sep-26 00:15 UTC.
Position N 34°32' E 032°21'.

Length 92 m; draft 4 m.

Type: Ship (hazmat cat A). MMSI: 677041300.

Date/timePositionNaut miles runAvg speedWind from/ knotsBaromVisibWave heightAir tempDewpointWater temp
2016-Sep-20 10:33N 34°32' E 032°21'16 8.1
2016-Sep-20 08:33N 34°28' E 032°41'8 8.2
2016-Sep-20 07:33N 34°26' E 032°50'9 8.3
2016-Sep-20 06:28N 34°24' E 033°01'26 6.7
2016-Sep-20 02:33N 34°18' E 033°32'18 5.6
2016-Sep-19 23:17N 34°14' E 033°53'21 5.6
2016-Sep-19 19:33N 34°09' E 034°18'6 5.9
2016-Sep-19 18:33N 34°07' E 034°25'14 7.0
2016-Sep-19 16:33N 34°03' E 034°41'19 8.9
2016-Sep-19 14:27N 33°57' E 035°02'9 8.9
2016-Sep-19 13:25N 33°55' E 035°13'8 8.4
2016-Sep-19 12:29N 33°55' E 035°22'  
2016-Sep-10 15:23N 34°54' E 035°50'0 0.0
2016-Sep-10 14:29N 34°54' E 035°50'  

Dump ship's entire track history